• Join FlightAware (Why Join?)
  • Login
  • US Flag 
04:44PM EDT


 

Airport Tracker/Info


-or-


 

Live Flight TrackerFlight Track Log ✈ EJA941 ✈ 26-Apr-2013 ✈ KALB - KHPN

Flight Track Log - Related Links

Times and Time Zones

All times are in EDT time to prevent confusion due to time zone crossing. See the EJA941 flight status page for this flight to view local times or setup timezone preferences in your user account.

Time Position Orientation Groundspeed Altitude Reporting Facility
EDT Latitude Longitude Course Direction KTS MPH feet Rate Location/Type
03:20PM 42.7331 -73.8844 251° West 251 289 4,000  Level Boston Center
03:21PM 42.6664 -73.8831 179° South 260 299 8,500 3,600 Climbing Boston Center
03:22PM 42.5853 -73.8642 170° South 273 314 11,300 1,800 Climbing Boston Center
03:23PM 42.4917 -73.8508 174° South 346 398 12,100 360 Climbing Boston Center
03:24PM 42.3689 -73.8311 173° South 398 458 12,100  Level Boston Center
03:25PM 42.2669 -73.8147 173° South 411 473 12,100  Level Boston Center
03:26PM 42.1442 -73.8122 179° South 405 466 12,100 -60 Level Boston Center
03:27PM 42.0439 -73.8156 181° South 400 460 12,000 -60 Descending Boston Center
03:28PM 41.9211 -73.8183 181° South 405 466 12,000 -360 Level Boston Center
03:29PM 41.8208 -73.8217 181° South 405 466 11,300 -480 Descending Boston Center
03:30PM 41.7042 -73.8331 184° South 400 460 11,100 -180 Descending Boston Center
03:31PM 41.6383 -73.9261 227° Southwest 368 423 11,000 -480 Descending Boston Center
03:32PM 41.5600 -74.0103 219° Southwest 350 403 10,200 -1,560 Descending Boston Center
03:33PM 41.4981 -73.9672 152° Southeast 256 295 7,900 -1,860 Descending Boston Center
03:35PM 41.4167 -73.8667 137° Southeast 274 315 5,900 -1,260 Descending New York TRACON
03:36PM 41.3500 -73.8000 143° Southeast 273 314 5,000 -960 Descending New York TRACON
03:37PM 41.2833 -73.7500 151° Southeast 270 311 4,000 -900 Descending New York TRACON
03:38PM 41.2333 -73.7000 143° Southeast 271 312 3,300 -540 Descending New York TRACON
03:39PM 41.1667 -73.6500 151° Southeast 260 299 3,000 -480 Descending New York TRACON
03:40PM 41.1167 -73.6000 143° Southeast 216 249 2,400 -540 Descending New York TRACON
03:41PM 41.0667 -73.5833 166° South 214 246 2,000 -240 Descending New York TRACON
03:42PM 41.0000 -73.5833 180° South 216 249 2,000  Level New York TRACON
03:43PM 40.9667 -73.6167 217° Southwest 206 237 2,000  Level New York TRACON
03:44PM 41.0000 -73.6500 323° Northwest 167 192 2,000 -480 Level New York TRACON
03:45PM 41.0333 -73.6833 323° Northwest 118 136 1,100 -1,020 Descending New York TRACON